TimeEDT,TemperatureF,Dew PointF,Humidity,Sea Level PressureIn,VisibilityMPH,Wind Direction,Wind SpeedMPH,Gust SpeedMPH,PrecipitationIn,Events,Conditions,WindDirDegrees,DateUTC
12:53 AM,66.0,52.0,60,29.91,10.0,South,10.4,-,N/A,,Clear,190,2012-10-26 04:53:00
1:53 AM,66.0,52.0,60,29.91,10.0,South,10.4,-,N/A,,Overcast,190,2012-10-26 05:53:00
2:53 AM,66.9,53.1,61,29.92,10.0,SSW,11.5,-,N/A,,Overcast,200,2012-10-26 06:53:00
3:53 AM,63.0,54.0,72,29.96,10.0,West,13.8,23.0,N/A,,Clear,280,2012-10-26 07:53:00
4:17 AM,60.8,53.6,77,29.99,10.0,West,13.8,24.2,N/A,,Mostly Cloudy,280,2012-10-26 08:17:00
4:53 AM,55.9,50.0,80,29.99,10.0,NW,15.0,-,N/A,,Overcast,310,2012-10-26 08:53:00
5:53 AM,53.1,46.0,77,30.04,10.0,NW,13.8,20.7,N/A,,Overcast,310,2012-10-26 09:53:00
6:26 AM,51.8,44.6,76,30.06,10.0,NW,12.7,-,N/A,,Overcast,320,2012-10-26 10:26:00
6:53 AM,51.1,44.1,77,30.07,10.0,NW,10.4,17.3,N/A,,Overcast,320,2012-10-26 10:53:00
7:53 AM,48.0,43.0,83,30.13,10.0,NW,12.7,23.0,0.01,Rain,Light Rain,310,2012-10-26 11:53:00
8:03 AM,48.2,42.8,82,30.14,10.0,NW,13.8,20.7,0.00,Rain,Light Rain,310,2012-10-26 12:03:00
8:23 AM,46.4,42.8,87,30.14,7.0,NW,13.8,-,0.00,Rain,Light Rain,320,2012-10-26 12:23:00
9:53 AM,46.9,43.0,86,30.17,10.0,NNW,8.1,-,0.00,Rain,Light Rain,330,2012-10-26 13:53:00
10:53 AM,46.9,43.0,86,30.19,9.0,North,9.2,17.3,0.01,Rain,Light Rain,350,2012-10-26 14:53:00
10:58 AM,46.4,42.8,87,30.19,10.0,North,10.4,-,0.00,Rain,Light Rain,350,2012-10-26 14:58:00
11:02 AM,46.4,42.8,87,30.18,10.0,North,8.1,-,0.00,Rain,Light Rain,350,2012-10-26 15:02:00
11:16 AM,46.4,42.8,87,30.19,10.0,North,9.2,-,0.00,,Overcast,350,2012-10-26 15:16:00
11:53 AM,46.9,43.0,86,30.19,10.0,North,10.4,-,0.00,,Overcast,360,2012-10-26 15:53:00
12:53 PM,48.0,42.1,80,30.19,10.0,North,10.4,-,0.00,,Overcast,360,2012-10-26 16:53:00
1:53 PM,48.0,42.1,80,30.19,10.0,NNW,12.7,19.6,0.00,Rain,Light Rain,330,2012-10-26 17:53:00
2:23 PM,46.4,42.8,87,30.18,10.0,NNW,12.7,19.6,0.01,Rain,Light Rain,330,2012-10-26 18:23:00
2:32 PM,46.4,42.8,87,30.18,10.0,NNW,8.1,-,0.01,Rain,Light Rain,340,2012-10-26 18:32:00
2:53 PM,46.9,42.1,83,30.18,8.0,North,10.4,-,0.02,Rain,Light Rain,350,2012-10-26 18:53:00
3:53 PM,46.9,42.1,83,30.17,6.0,North,8.1,-,0.07,Rain,Light Rain,350,2012-10-26 19:53:00
4:38 PM,46.4,42.8,87,30.15,9.0,North,11.5,16.1,0.02,Rain,Light Rain,360,2012-10-26 20:38:00
4:53 PM,46.0,42.1,86,30.17,10.0,North,6.9,-,0.02,Rain,Light Rain,360,2012-10-26 20:53:00
5:44 PM,44.6,41.0,87,30.17,8.0,North,9.2,-,0.02,Rain,Light Rain,350,2012-10-26 21:44:00
5:53 PM,45.0,41.0,86,30.17,10.0,North,9.2,-,0.02,Rain,Light Rain,10,2012-10-26 21:53:00
6:27 PM,44.6,41.0,87,30.19,10.0,NNW,9.2,-,0.01,Rain,Light Rain,330,2012-10-26 22:27:00
6:53 PM,45.0,41.0,86,30.20,4.0,North,8.1,-,0.04,Rain,Light Rain,360,2012-10-26 22:53:00
7:53 PM,44.1,41.0,89,30.20,6.0,NNE,9.2,-,0.07,Rain,Rain,20,2012-10-26 23:53:00
8:53 PM,44.1,39.9,85,30.18,10.0,North,10.4,-,0.05,Rain,Light Rain,10,2012-10-27 00:53:00
9:53 PM,44.1,39.9,85,30.19,8.0,North,6.9,-,0.01,Rain,Light Rain,350,2012-10-27 01:53:00
10:53 PM,44.1,39.9,85,30.19,9.0,North,10.4,-,0.03,Rain,Light Rain,350,2012-10-27 02:53:00
11:53 PM,44.1,39.9,85,30.18,7.0,North,8.1,-,0.01,Rain,Light Rain,10,2012-10-27 03:53:00